Time;durP1;ratioP1;P1;durP2;ratioP2;P2;SDS_P1;SDS_P2;PMS_P1;PMS_P2;Temp;Humidity;BMP_temperature;BMP_pressure;BME280_temperature;BME280_humidity;BME280_pressure;Samples;Min_cycle;Max_cycle;Signal;HPM_P1;HPM_P2
2020/12/26 00:00:30;;;;;;;22.73;13.67;;;2.00;99.90;;;-146.47;100.00;66290.13;4938026;29;20263;-79
2020/12/26 00:03:15;;;;;;;24.17;14.23;;;2.00;99.90;;;-146.47;100.00;66290.13;4939621;29;20222;-79
2020/12/26 00:06:00;;;;;;;22.00;12.97;;;2.10;99.90;;;-146.47;100.00;66290.13;4937398;29;20816;-78
2020/12/26 00:08:46;;;;;;;24.20;13.97;;;2.20;99.90;;;-146.47;100.00;66290.13;4937050;29;20238;-80
2020/12/26 00:11:31;;;;;;;20.57;14.73;;;2.20;99.90;;;-146.47;100.00;66290.13;4937604;29;20913;-78
2020/12/26 00:14:16;;;;;;;22.17;14.10;;;2.30;99.90;;;-146.47;100.00;66290.13;4953333;28;20245;-79
2020/12/26 00:17:03;;;;;;;20.43;12.60;;;2.40;99.90;;;-146.47;100.00;66290.13;4936336;29;20231;-79
2020/12/26 00:19:47;;;;;;;21.17;13.67;;;2.50;99.90;;;-146.47;100.00;66290.13;4947043;29;20615;-79
2020/12/26 00:22:34;;;;;;;23.53;13.90;;;2.50;99.90;;;-146.47;100.00;66290.13;4952616;29;20603;-79
2020/12/26 00:25:19;;;;;;;26.43;13.53;;;2.60;99.90;;;-146.47;100.00;66290.13;4939233;29;20202;-79
2020/12/26 00:28:05;;;;;;;20.00;12.77;;;2.60;99.90;;;-146.47;100.00;66290.13;4942058;29;20322;-79
2020/12/26 00:30:50;;;;;;;22.33;13.07;;;2.70;99.90;;;-146.47;100.00;66290.13;4938992;29;20289;-79
2020/12/26 00:33:36;;;;;;;21.77;10.40;;;2.80;99.90;;;-146.47;100.00;66290.13;4936661;29;20246;-79
2020/12/26 00:36:21;;;;;;;25.47;12.17;;;2.80;99.90;;;-146.47;100.00;66290.13;4939048;29;20717;-79
2020/12/26 00:39:07;;;;;;;16.93;10.13;;;2.80;99.90;;;-146.47;100.00;66290.13;4935312;29;20214;-79
2020/12/26 00:41:52;;;;;;;20.17;12.37;;;2.90;99.90;;;-146.47;100.00;66290.13;4937091;29;20239;-78
2020/12/26 00:44:37;;;;;;;19.27;11.67;;;2.90;99.90;;;-146.47;100.00;66290.13;4934870;29;20209;-79
2020/12/26 00:47:22;;;;;;;18.67;10.67;;;3.00;99.90;;;-146.47;100.00;66290.13;4949635;29;20671;-79
2020/12/26 00:50:08;;;;;;;22.83;10.67;;;3.10;99.90;;;-146.47;100.00;66290.13;4936744;29;20210;-78
2020/12/26 00:52:53;;;;;;;19.93;10.90;;;3.10;99.90;;;-146.47;100.00;66290.13;4950464;29;20230;-79
2020/12/26 00:55:39;;;;;;;19.77;10.43;;;3.10;99.90;;;-146.47;100.00;66290.13;4946989;29;20266;-79
2020/12/26 00:58:24;;;;;;;17.77;10.87;;;3.20;99.90;;;-146.47;100.00;66290.13;4943150;29;20761;-79
2020/12/26 01:01:09;;;;;;;18.30;12.17;;;3.20;99.90;;;-146.47;100.00;66290.13;4954688;29;20271;-79
2020/12/26 01:03:54;;;;;;;21.67;11.10;;;3.20;99.90;;;-146.47;100.00;66290.13;4942870;28;20233;-79
2020/12/26 01:06:40;;;;;;;18.60;9.73;;;3.30;99.90;;;-146.47;100.00;66290.13;4952436;28;20584;-79
2020/12/26 01:09:25;;;;;;;19.40;10.83;;;3.30;99.90;;;-146.47;100.00;66290.13;4953128;29;20209;-79
2020/12/26 01:12:11;;;;;;;21.40;10.90;;;3.30;99.90;;;-146.47;100.00;66290.13;4959581;29;20205;-79
2020/12/26 01:14:57;;;;;;;17.43;9.90;;;3.30;99.90;;;-146.47;100.00;66290.13;4942902;28;20827;-79
2020/12/26 01:17:42;;;;;;;20.30;10.13;;;3.40;99.90;;;-146.47;100.00;66290.13;4947945;29;20234;-78
2020/12/26 01:20:27;;;;;;;15.57;9.80;;;3.40;99.90;;;-146.47;100.00;66290.13;4939815;29;20222;-79
2020/12/26 01:23:13;;;;;;;17.33;8.87;;;3.40;99.90;;;-146.47;100.00;66290.13;4951822;29;20226;-78
2020/12/26 01:25:58;;;;;;;23.93;9.80;;;3.50;99.90;;;-146.47;100.00;66290.13;4946035;29;20213;-78
2020/12/26 01:28:45;;;;;;;14.33;7.67;;;3.50;99.90;;;-146.47;100.00;66290.13;4942075;29;20231;-79
2020/12/26 01:31:30;;;;;;;17.17;8.80;;;3.60;99.90;;;-146.47;100.00;66290.13;4948661;29;20595;-78
2020/12/26 01:34:16;;;;;;;15.40;9.53;;;3.60;99.90;;;-146.47;100.00;66290.13;4938487;29;20587;-79
2020/12/26 01:37:02;;;;;;;16.43;9.07;;;3.60;99.90;;;-146.47;100.00;66290.13;4951065;29;20792;-78
2020/12/26 01:39:47;;;;;;;21.97;9.83;;;3.60;99.90;;;-146.47;100.00;66290.13;4941838;29;20219;-79
2020/12/26 01:42:33;;;;;;;13.53;8.60;;;3.60;99.90;;;-146.47;100.00;66290.13;4953730;29;20292;-79
2020/12/26 01:45:18;;;;;;;16.00;8.50;;;3.60;99.90;;;-146.47;100.00;66290.13;4937532;29;20214;-79
2020/12/26 01:48:04;;;;;;;14.57;8.77;;;3.60;99.90;;;-146.47;100.00;66290.13;4940379;29;20263;-79
2020/12/26 01:50:51;;;;;;;17.07;7.63;;;3.70;99.90;;;-146.47;100.00;66290.13;4940359;29;20235;-79
2020/12/26 01:53:36;;;;;;;15.77;8.97;;;3.70;99.90;;;-146.47;100.00;66290.13;4938683;28;20259;-77
2020/12/26 01:56:22;;;;;;;11.23;8.30;;;3.70;99.90;;;-146.47;100.00;66290.13;4940441;29;20226;-79
2020/12/26 01:59:09;;;;;;;13.50;7.80;;;3.80;99.90;;;-146.47;100.00;66290.13;4954084;28;20226;-79
2020/12/26 02:01:57;;;;;;;13.83;8.37;;;3.80;99.90;;;-146.47;100.00;66290.13;4940594;29;20211;-79
2020/12/26 02:04:42;;;;;;;13.10;7.93;;;3.80;99.90;;;-146.47;100.00;66290.13;4951573;28;20239;-79
2020/12/26 02:07:27;;;;;;;14.37;8.33;;;3.70;99.90;;;-146.47;100.00;66290.13;4955185;29;20253;-79
2020/12/26 02:10:14;;;;;;;12.67;7.87;;;3.90;99.90;;;-146.47;100.00;66290.13;4940416;29;20231;-79
2020/12/26 02:12:59;;;;;;;8.77;6.90;;;3.80;99.90;;;-146.47;100.00;66290.13;4945275;29;20230;-79
2020/12/26 02:15:44;;;;;;;15.40;9.77;;;3.80;99.90;;;-146.47;100.00;66290.13;4952757;29;20229;-79
2020/12/26 02:18:31;;;;;;;18.03;8.73;;;3.90;99.90;;;-146.47;100.00;66290.13;4940892;28;20262;-78
2020/12/26 02:21:17;;;;;;;11.00;7.30;;;3.90;99.90;;;-146.47;100.00;66290.13;4936489;29;20207;-78
2020/12/26 02:24:03;;;;;;;13.93;7.93;;;4.00;99.90;;;-146.47;100.00;66290.13;4935343;28;20832;-79
2020/12/26 02:26:48;;;;;;;17.60;8.23;;;4.00;99.90;;;-146.47;100.00;66290.13;4936359;29;20215;-78
2020/12/26 02:29:33;;;;;;;13.57;8.00;;;3.90;99.90;;;-146.47;100.00;66290.13;4949656;29;20214;-79
2020/12/26 02:32:19;;;;;;;12.33;8.03;;;3.90;99.90;;;-146.47;100.00;66290.13;4936334;29;20218;-78
2020/12/26 02:35:05;;;;;;;11.87;7.90;;;4.00;99.90;;;-146.47;100.00;66290.13;4948737;29;20315;-79
2020/12/26 02:37:50;;;;;;;11.70;6.90;;;4.00;99.90;;;-146.47;100.00;66290.13;4936307;29;20261;-79
2020/12/26 02:40:36;;;;;;;12.23;9.10;;;4.00;99.90;;;-146.47;100.00;66290.13;4938142;29;20202;-79
2020/12/26 02:43:24;;;;;;;14.80;7.87;;;4.00;99.90;;;-146.47;100.00;66290.13;4938848;29;20259;-80
2020/12/26 02:46:09;;;;;;;13.97;8.43;;;4.00;99.90;;;-146.47;100.00;66290.13;4951030;29;20388;-79
2020/12/26 02:48:54;;;;;;;13.40;8.07;;;4.00;99.90;;;-146.47;100.00;66290.13;4945858;29;20213;-79
2020/12/26 02:51:39;;;;;;;11.30;8.67;;;4.00;99.90;;;-146.47;100.00;66290.13;4939284;29;20210;-78
2020/12/26 02:54:24;;;;;;;11.20;7.50;;;4.00;99.90;;;-146.47;100.00;66290.13;4938320;29;20227;-79
2020/12/26 02:57:10;;;;;;;11.07;7.67;;;4.00;99.90;;;-146.47;100.00;66290.13;4952736;28;20294;-78
2020/12/26 02:59:56;;;;;;;14.23;7.87;;;4.10;99.90;;;-146.47;100.00;66290.13;4942687;29;20222;-78
2020/12/26 03:02:41;;;;;;;13.73;7.67;;;4.00;99.90;;;-146.47;100.00;66290.13;4950038;28;20322;-78
2020/12/26 03:05:26;;;;;;;13.43;7.00;;;4.10;99.90;;;-146.47;100.00;66290.13;4959880;29;20209;-77
2020/12/26 03:08:11;;;;;;;15.50;6.33;;;4.10;99.90;;;-146.47;100.00;66290.13;4945686;29;20741;-79
2020/12/26 03:10:57;;;;;;;8.93;6.57;;;4.20;99.90;;;-146.47;100.00;66290.13;4940001;29;20600;-79
2020/12/26 03:13:43;;;;;;;10.87;6.10;;;4.10;99.90;;;-146.47;100.00;66290.13;4948887;29;20759;-79
2020/12/26 03:16:28;;;;;;;7.90;6.17;;;4.20;99.90;;;-146.47;100.00;66290.13;4947608;29;20210;-79
2020/12/26 03:19:13;;;;;;;6.97;5.60;;;4.20;99.90;;;-146.47;100.00;66290.13;4943343;29;20203;-79
2020/12/26 03:21:58;;;;;;;8.07;5.63;;;4.20;99.90;;;-146.47;100.00;66290.13;4944013;29;20314;-79
2020/12/26 03:24:43;;;;;;;7.77;5.67;;;4.20;99.90;;;-146.47;100.00;66290.13;4947019;29;20230;-78
2020/12/26 03:27:29;;;;;;;7.77;5.40;;;4.20;99.90;;;-146.47;100.00;66290.13;4944537;29;20263;-79
2020/12/26 03:30:15;;;;;;;10.03;5.80;;;4.20;99.90;;;-146.47;100.00;66290.13;4940503;29;20230;-79
2020/12/26 03:33:00;;;;;;;9.77;5.13;;;4.20;99.90;;;-146.47;100.00;66290.13;4938403;29;20227;-78
2020/12/26 03:35:46;;;;;;;8.37;5.30;;;4.20;99.90;;;-146.47;100.00;66290.13;4937624;29;21036;-79
2020/12/26 03:38:31;;;;;;;11.20;6.03;;;4.20;99.90;;;-146.47;100.00;66290.13;4939402;29;20270;-79
2020/12/26 03:41:16;;;;;;;10.87;6.10;;;4.20;99.90;;;-146.47;100.00;66290.13;4947567;29;20262;-79
2020/12/26 03:44:01;;;;;;;10.73;5.73;;;4.20;99.90;;;-146.47;100.00;66290.13;4943375;29;20768;-78
2020/12/26 03:46:47;;;;;;;11.23;7.10;;;4.20;99.90;;;-146.47;100.00;66290.13;4945357;29;20231;-78
2020/12/26 03:49:33;;;;;;;12.53;7.03;;;4.20;99.90;;;-146.47;100.00;66290.13;4949097;28;20327;-78
2020/12/26 03:52:18;;;;;;;10.43;6.40;;;4.10;99.90;;;-146.47;100.00;66290.13;4945584;29;20223;-79
2020/12/26 03:55:04;;;;;;;10.67;6.77;;;4.10;99.90;;;-146.47;100.00;66290.13;4942013;29;20210;-79
2020/12/26 03:57:49;;;;;;;9.40;6.57;;;4.00;99.90;;;-146.47;100.00;66290.13;4946789;29;20724;-79
2020/12/26 04:00:34;;;;;;;10.67;6.87;;;4.00;99.90;;;-146.47;100.00;66290.13;4944139;29;20214;-79
2020/12/26 04:03:20;;;;;;;13.10;7.57;;;3.90;99.90;;;-146.47;100.00;66290.13;4945761;28;20230;-79
2020/12/26 04:06:05;;;;;;;11.33;8.20;;;3.90;99.90;;;-146.47;100.00;66290.13;4957640;29;20254;-79
2020/12/26 04:08:50;;;;;;;15.80;7.63;;;3.90;99.90;;;-146.47;100.00;66290.13;4947253;29;20243;-79
2020/12/26 04:11:35;;;;;;;11.33;7.73;;;3.80;99.90;;;-146.47;100.00;66290.13;4956912;29;20213;-79
2020/12/26 04:14:20;;;;;;;11.77;8.53;;;3.80;99.90;;;-146.47;100.00;66290.13;4937671;29;20226;-79
2020/12/26 04:17:06;;;;;;;13.57;7.93;;;3.70;99.90;;;-146.47;100.00;66290.13;4942194;28;20753;-78
2020/12/26 04:19:51;;;;;;;7.53;5.30;;;3.70;99.90;;;-146.47;100.00;66290.13;4937878;29;20248;-79
2020/12/26 04:22:37;;;;;;;9.67;6.43;;;3.60;99.90;;;-146.47;100.00;66290.13;4945017;29;20250;-79
2020/12/26 04:25:22;;;;;;;13.63;8.17;;;3.60;99.90;;;-146.47;100.00;66290.13;4939534;29;20214;-79
2020/12/26 04:28:07;;;;;;;14.93;8.20;;;3.70;99.90;;;-146.47;100.00;66290.13;4936541;29;20275;-79
2020/12/26 04:30:53;;;;;;;12.03;8.10;;;3.50;99.90;;;-146.47;100.00;66290.13;4942301;29;20222;-79
2020/12/26 04:33:39;;;;;;;13.10;9.03;;;3.60;99.90;;;-146.47;100.00;66290.13;4936489;29;20847;-78
2020/12/26 04:36:25;;;;;;;14.17;8.50;;;3.50;99.90;;;-146.47;100.00;66290.13;4938803;29;20235;-78
2020/12/26 04:39:10;;;;;;;12.83;9.10;;;3.50;99.90;;;-146.47;100.00;66290.13;4944823;29;20202;-79
2020/12/26 04:41:55;;;;;;;12.77;8.67;;;3.50;99.90;;;-146.47;100.00;66290.13;4948538;29;20206;-79
2020/12/26 04:44:41;;;;;;;12.27;7.90;;;3.50;99.90;;;-146.47;100.00;66290.13;4942756;29;20213;-79
2020/12/26 04:47:35;;;;;;;11.73;8.33;;;3.40;99.90;;;-146.47;100.00;66290.13;4938753;29;20785;-79
2020/12/26 04:50:31;;;;;;;13.77;8.60;;;3.40;99.90;;;-146.47;100.00;66290.13;4940796;29;20264;-78
2020/12/26 04:53:19;;;;;;;11.23;8.83;;;3.40;99.90;;;-146.47;100.00;66290.13;4935669;29;20297;-78
2020/12/26 04:56:04;;;;;;;11.77;8.00;;;3.40;99.90;;;-146.47;100.00;66290.13;4936532;29;20291;-78
2020/12/26 04:58:51;;;;;;;10.23;7.60;;;3.40;99.90;;;-146.47;100.00;66290.13;4949929;29;20254;-79
2020/12/26 05:01:40;;;;;;;15.93;9.00;;;3.40;99.90;;;-146.47;100.00;66290.13;4936323;29;20206;-79
2020/12/26 05:04:25;;;;;;;16.10;9.60;;;3.40;99.90;;;-146.47;100.00;66290.13;4944796;28;20608;-78
2020/12/26 05:07:11;;;;;;;14.37;10.87;;;3.40;99.90;;;-146.47;100.00;66290.13;4936635;29;20232;-79
2020/12/26 05:09:56;;;;;;;15.60;11.53;;;3.30;99.90;;;-146.47;100.00;66290.13;4936232;29;20218;-79
2020/12/26 05:12:43;;;;;;;13.23;10.03;;;3.30;99.90;;;-146.47;100.00;66290.13;4935958;29;20235;-79
2020/12/26 05:15:28;;;;;;;21.73;14.17;;;3.30;99.90;;;-146.47;100.00;66290.13;4935549;29;20215;-79
2020/12/26 05:18:13;;;;;;;19.80;10.60;;;3.30;99.90;;;-146.47;100.00;66290.13;4936127;29;20286;-78
2020/12/26 05:20:58;;;;;;;21.90;12.43;;;3.30;99.90;;;-146.47;100.00;66290.13;4939313;29;20214;-78
2020/12/26 05:23:43;;;;;;;23.60;12.97;;;3.30;99.90;;;-146.47;100.00;66290.13;4937370;29;20753;-78
2020/12/26 05:26:31;;;;;;;18.20;10.93;;;3.30;99.90;;;-146.47;100.00;66290.13;4939710;29;20569;-79
2020/12/26 05:29:20;;;;;;;18.87;13.20;;;3.30;99.90;;;-146.47;100.00;66290.13;4940697;29;20254;-79
2020/12/26 05:32:05;;;;;;;20.30;12.97;;;3.20;99.90;;;-146.47;100.00;66290.13;4937935;29;20670;-78
2020/12/26 05:34:50;;;;;;;15.40;10.53;;;3.20;99.90;;;-146.47;100.00;66290.13;4935091;29;20227;-79
2020/12/26 05:37:36;;;;;;;15.97;10.70;;;3.20;99.90;;;-146.47;100.00;66290.13;4935782;29;20238;-78
2020/12/26 05:40:22;;;;;;;18.40;12.73;;;3.20;99.90;;;-146.47;100.00;66290.13;4940974;29;20230;-79
2020/12/26 05:43:10;;;;;;;20.43;14.10;;;3.20;99.90;;;-146.47;100.00;66290.13;4934948;29;20929;-79
2020/12/26 05:45:56;;;;;;;19.43;14.87;;;3.20;99.90;;;-146.47;100.00;66290.13;4936996;29;20243;-78
2020/12/26 05:48:41;;;;;;;19.67;14.10;;;3.20;99.90;;;-146.47;100.00;66290.13;4935821;29;20575;-79
2020/12/26 05:51:26;;;;;;;22.77;15.07;;;3.20;99.90;;;-146.47;100.00;66290.13;4935413;29;20210;-79
2020/12/26 05:54:12;;;;;;;17.87;12.30;;;3.30;99.90;;;-146.47;100.00;66290.13;4938285;29;20226;-78
2020/12/26 05:57:11;;;;;;;22.33;13.00;;;3.10;99.90;;;-146.47;100.00;66290.13;4939166;28;20222;-79
2020/12/26 05:59:57;;;;;;;20.63;14.83;;;3.20;99.90;;;-146.47;100.00;66290.13;4939908;29;20215;-79
2020/12/26 06:02:42;;;;;;;22.17;15.23;;;3.20;99.90;;;-146.47;100.00;66290.13;4945361;28;20237;-78
2020/12/26 06:05:28;;;;;;;20.23;11.60;;;3.10;99.90;;;-146.47;100.00;66290.13;4957332;29;20550;-79
2020/12/26 06:08:16;;;;;;;21.37;15.47;;;3.20;99.90;;;-146.47;100.00;66290.13;4956637;29;20263;-79
2020/12/26 06:11:04;;;;;;;23.33;16.20;;;3.10;99.90;;;-146.47;100.00;66290.13;4944847;29;20575;-80
2020/12/26 06:13:50;;;;;;;23.13;17.47;;;3.20;99.90;;;-146.47;100.00;66290.13;4953390;29;20231;-79
2020/12/26 06:16:37;;;;;;;21.03;16.10;;;3.10;99.90;;;-146.47;100.00;66290.13;4945771;28;20236;-78
2020/12/26 06:19:28;;;;;;;23.10;16.00;;;3.20;99.90;;;-146.47;100.00;66290.13;4941937;29;20251;-79
2020/12/26 06:22:13;;;;;;;25.40;16.50;;;3.20;99.90;;;-146.47;100.00;66290.13;4945037;29;20203;-79
2020/12/26 06:24:59;;;;;;;23.40;16.40;;;3.20;99.90;;;-146.47;100.00;66290.13;4944274;29;20231;-79
2020/12/26 06:28:00;;;;;;;24.20;17.33;;;3.20;99.90;;;-146.47;100.00;66290.13;4954482;29;20258;-79
2020/12/26 06:30:46;;;;;;;20.70;14.53;;;3.30;99.90;;;-146.47;100.00;66290.13;4944729;29;20260;-78
2020/12/26 06:33:39;;;;;;;20.00;15.63;;;3.30;99.90;;;-146.47;100.00;66290.13;4949246;29;20275;-79
2020/12/26 06:36:25;;;;;;;18.53;13.50;;;3.30;99.90;;;-146.47;100.00;66290.13;4938784;29;20336;-79
2020/12/26 06:39:27;;;;;;;24.60;15.63;;;3.40;99.90;;;-146.47;100.00;66290.13;4950897;29;20259;-77
2020/12/26 06:42:18;;;;;;;22.50;14.13;;;3.30;99.90;;;-146.47;100.00;66290.13;4945180;29;20210;-79
2020/12/26 06:45:03;;;;;;;23.47;15.43;;;3.30;99.90;;;-146.47;100.00;66290.13;4943850;29;20580;-78
2020/12/26 06:47:48;;;;;;;15.50;12.90;;;3.40;99.90;;;-146.47;100.00;66290.13;4939000;29;20219;-79
2020/12/26 06:50:35;;;;;;;21.87;14.77;;;3.30;99.90;;;-146.47;100.00;66290.13;4947169;29;20260;-78
2020/12/26 06:53:36;;;;;;;23.47;16.73;;;3.30;99.90;;;-146.47;100.00;66290.13;4943186;29;20270;-79
2020/12/26 06:56:46;;;;;;;21.63;15.53;;;3.20;99.90;;;-146.47;100.00;66290.13;4950156;29;20261;-79
2020/12/26 06:59:33;;;;;;;25.10;16.37;;;3.20;99.90;;;-146.47;100.00;66290.13;4950123;29;20258;-78
2020/12/26 07:02:26;;;;;;;23.00;15.63;;;3.30;99.90;;;-146.47;100.00;66290.13;4941596;29;20213;-78
2020/12/26 07:05:37;;;;;;;21.07;15.73;;;3.20;99.90;;;-146.47;100.00;66290.13;4942562;29;20202;-78
2020/12/26 07:08:32;;;;;;;25.23;16.90;;;3.20;99.90;;;-146.47;100.00;66290.13;4940615;29;20712;-78
2020/12/26 07:11:26;;;;;;;22.73;16.97;;;3.30;99.90;;;-146.47;100.00;66290.13;4938675;29;20291;-79
2020/12/26 07:14:32;;;;;;;21.57;15.33;;;3.30;99.90;;;-146.47;100.00;66290.13;4940520;29;20278;-79
2020/12/26 07:17:27;;;;;;;22.83;15.67;;;3.30;99.90;;;-146.47;100.00;66290.13;4940686;29;20242;-78
2020/12/26 07:20:28;;;;;;;18.30;12.53;;;3.30;99.90;;;-146.47;100.00;66290.13;4936453;29;20206;-78
2020/12/26 07:23:14;;;;;;;17.30;12.90;;;3.30;99.90;;;-146.47;100.00;66290.13;4935438;29;20243;-79
2020/12/26 07:25:59;;;;;;;22.07;14.80;;;3.30;99.90;;;-146.47;100.00;66290.13;4935927;29;20291;-78
2020/12/26 07:28:44;;;;;;;20.63;14.20;;;3.30;99.90;;;-146.47;100.00;66290.13;4936040;29;20262;-78
2020/12/26 07:31:47;;;;;;;19.93;13.03;;;3.30;99.90;;;-146.47;100.00;66290.13;4936319;29;20206;-79
2020/12/26 07:34:37;;;;;;;20.47;15.50;;;3.30;99.90;;;-146.47;100.00;66290.13;4935844;29;20729;-79
2020/12/26 07:37:22;;;;;;;19.40;13.97;;;3.30;99.90;;;-146.47;100.00;66290.13;4946095;29;20225;-78
2020/12/26 07:40:09;;;;;;;18.60;12.43;;;3.40;99.90;;;-146.47;100.00;66290.13;4938244;29;20214;-79
2020/12/26 07:42:56;;;;;;;20.40;13.53;;;3.40;99.90;;;-146.47;100.00;66290.13;4946355;29;20330;-79
2020/12/26 07:45:44;;;;;;;18.73;13.73;;;3.40;99.90;;;-146.47;100.00;66290.13;4943913;29;20210;-79
2020/12/26 07:48:29;;;;;;;21.70;13.77;;;3.30;99.90;;;-146.47;100.00;66290.13;4942458;29;20238;-78
2020/12/26 07:51:14;;;;;;;19.07;14.13;;;3.40;99.90;;;-146.47;100.00;66290.13;4941870;29;20217;-79
2020/12/26 07:53:59;;;;;;;18.33;13.17;;;3.40;99.90;;;-146.47;100.00;66290.13;4958066;28;20277;-78
2020/12/26 07:56:46;;;;;;;17.90;10.77;;;3.40;99.90;;;-146.47;100.00;66290.13;4933014;28;20218;-78
2020/12/26 07:59:31;;;;;;;19.47;12.47;;;3.50;99.90;;;-146.47;100.00;66290.13;4960285;28;20231;-79
2020/12/26 08:02:16;;;;;;;19.87;12.07;;;3.40;99.90;;;-146.47;100.00;66290.13;4950298;28;20718;-78
2020/12/26 08:05:02;;;;;;;16.20;11.53;;;3.40;99.90;;;-146.47;100.00;66290.13;4938607;29;20258;-79
2020/12/26 08:07:47;;;;;;;16.80;9.93;;;3.50;99.90;;;-146.47;100.00;66290.13;4940198;29;20647;-78
2020/12/26 08:10:32;;;;;;;16.07;9.57;;;3.50;99.90;;;-146.47;100.00;66290.13;4940649;29;20234;-79
2020/12/26 08:13:18;;;;;;;18.20;11.37;;;3.50;99.90;;;-146.47;100.00;66290.13;4950998;29;20304;-78
2020/12/26 08:16:05;;;;;;;13.20;8.20;;;3.50;99.90;;;-146.47;100.00;66290.13;4942443;28;20210;-79
2020/12/26 08:18:52;;;;;;;11.37;7.27;;;3.60;99.90;;;-146.47;100.00;66290.13;4939861;29;20238;-79
2020/12/26 08:21:37;;;;;;;13.80;8.07;;;3.50;99.90;;;-146.47;100.00;66290.13;4947004;29;20205;-78
2020/12/26 08:24:22;;;;;;;10.53;7.70;;;3.60;99.90;;;-146.47;100.00;66290.13;4945092;29;20301;-79
2020/12/26 08:27:09;;;;;;;15.43;9.63;;;3.60;99.90;;;-146.47;100.00;66290.13;4945771;29;20255;-77
2020/12/26 08:29:58;;;;;;;14.70;9.93;;;3.60;99.90;;;-146.47;100.00;66290.13;4936653;28;20655;-79
2020/12/26 08:32:56;;;;;;;15.07;9.57;;;3.60;99.90;;;-146.47;100.00;66290.13;4939418;28;20219;-78
2020/12/26 08:35:53;;;;;;;14.57;9.47;;;3.60;99.90;;;-146.47;100.00;66290.13;4947328;28;20301;-78
2020/12/26 08:38:46;;;;;;;12.20;8.10;;;3.70;99.90;;;-146.47;100.00;66290.13;4944774;29;20234;-78
2020/12/26 08:41:33;;;;;;;12.07;8.33;;;3.70;99.90;;;-146.47;100.00;66290.13;4948232;29;20226;-78
2020/12/26 08:44:19;;;;;;;13.37;8.30;;;3.70;99.90;;;-146.47;100.00;66290.13;4945777;28;20233;-78
2020/12/26 08:47:07;;;;;;;14.50;8.73;;;3.70;99.90;;;-146.47;100.00;66290.13;4951883;29;20580;-77
2020/12/26 08:49:52;;;;;;;16.80;8.10;;;3.70;99.90;;;-146.47;100.00;66290.13;4938838;29;20214;-77
2020/12/26 08:52:38;;;;;;;14.37;8.20;;;3.80;99.90;;;-146.47;100.00;66290.13;4942002;29;20241;-79
2020/12/26 08:55:23;;;;;;;11.60;8.27;;;3.80;99.90;;;-146.47;100.00;66290.13;4948295;29;20215;-78
2020/12/26 08:58:08;;;;;;;10.83;6.00;;;3.90;99.90;;;-146.47;100.00;66290.13;4947941;28;20225;-76
2020/12/26 09:00:58;;;;;;;10.23;7.33;;;3.90;99.90;;;-146.47;100.00;66290.13;4946767;29;20214;-77
2020/12/26 09:03:49;;;;;;;11.23;6.93;;;3.90;99.90;;;-146.47;100.00;66290.13;4948861;28;20331;-77
2020/12/26 09:06:39;;;;;;;12.07;6.70;;;4.00;99.90;;;-146.47;100.00;66290.13;4949529;29;20214;-77
2020/12/26 09:09:24;;;;;;;13.73;7.67;;;3.90;99.90;;;-146.47;100.00;66290.13;4950035;28;20749;-79
2020/12/26 09:12:09;;;;;;;11.67;6.57;;;4.00;99.90;;;-146.47;100.00;66290.13;4950806;28;20209;-78
2020/12/26 09:14:56;;;;;;;12.10;6.73;;;4.00;99.90;;;-146.47;100.00;66290.13;4948192;29;20207;-77
2020/12/26 09:17:41;;;;;;;12.13;6.63;;;4.00;99.90;;;-146.47;100.00;66290.13;4966555;28;20230;-76
2020/12/26 09:20:27;;;;;;;8.77;5.63;;;4.10;99.90;;;-146.47;100.00;66290.13;4959324;28;20262;-77
2020/12/26 09:23:13;;;;;;;11.33;8.03;;;4.10;99.90;;;-146.47;100.00;66290.13;4962725;29;20233;-77
2020/12/26 09:26:13;;;;;;;14.00;7.40;;;4.10;99.90;;;-146.47;100.00;66290.13;4960641;28;20214;-78
2020/12/26 09:29:02;;;;;;;12.37;6.87;;;4.10;99.90;;;-146.47;100.00;66290.13;4969596;29;20239;-77
2020/12/26 09:31:47;;;;;;;14.10;7.33;;;4.10;99.90;;;-146.47;100.00;66290.13;4954961;29;20210;-79
2020/12/26 09:34:36;;;;;;;13.30;7.30;;;4.20;99.90;;;-146.47;100.00;66290.13;4953749;28;20728;-79
2020/12/26 09:37:22;;;;;;;10.23;5.83;;;4.20;99.90;;;-146.47;100.00;66290.13;4957181;28;20571;-79
2020/12/26 09:40:07;;;;;;;9.57;6.50;;;4.30;99.90;;;-146.47;100.00;66290.13;4951478;29;20295;-78
2020/12/26 09:42:53;;;;;;;10.13;6.77;;;4.40;99.90;;;-146.47;100.00;66290.13;4944415;29;20234;-78
2020/12/26 09:45:38;;;;;;;9.70;5.73;;;4.50;99.90;;;-146.47;100.00;66290.13;4949426;29;20238;-79
2020/12/26 09:48:23;;;;;;;6.53;5.17;;;4.60;99.90;;;-146.47;100.00;66290.13;4951433;28;20230;-79
2020/12/26 09:51:14;;;;;;;8.93;5.87;;;4.80;99.90;;;-146.47;100.00;66290.13;4954402;29;20616;-78
2020/12/26 09:54:00;;;;;;;8.30;5.57;;;4.90;99.90;;;-146.47;100.00;66290.13;4952899;29;20701;-78
2020/12/26 09:56:46;;;;;;;8.03;5.13;;;5.10;99.90;;;-146.47;100.00;66290.13;4952724;29;20673;-79
2020/12/26 09:59:33;;;;;;;5.80;5.10;;;5.20;99.90;;;-146.47;100.00;66290.13;4954871;29;20210;-79
2020/12/26 10:02:21;;;;;;;8.77;4.67;;;5.30;99.90;;;-146.47;100.00;66290.13;4953440;29;20206;-79
2020/12/26 10:05:07;;;;;;;6.70;4.57;;;5.50;99.90;;;-146.47;100.00;66290.13;4946948;29;20286;-79
2020/12/26 10:07:52;;;;;;;9.97;5.47;;;5.60;99.90;;;-146.47;100.00;66290.13;4949943;29;20218;-79
2020/12/26 10:10:38;;;;;;;6.53;5.03;;;5.70;99.90;;;-146.47;100.00;66290.13;4955386;28;20277;-79
2020/12/26 10:13:23;;;;;;;8.97;5.13;;;5.80;99.90;;;-146.47;100.00;66290.13;4952108;29;20293;-79
2020/12/26 10:16:09;;;;;;;7.13;5.07;;;5.90;99.90;;;-146.47;100.00;66290.13;4947716;29;20572;-79
2020/12/26 10:18:54;;;;;;;7.57;5.10;;;5.90;99.90;;;-146.47;100.00;66290.13;4942776;28;20242;-79
2020/12/26 10:21:39;;;;;;;10.03;5.00;;;6.00;99.90;;;-146.47;100.00;66290.13;4956146;29;20214;-79
2020/12/26 10:24:25;;;;;;;6.73;4.00;;;6.00;99.90;;;-146.47;100.00;66290.13;4941093;29;20230;-78
2020/12/26 10:27:11;;;;;;;7.43;4.77;;;6.00;99.90;;;-146.47;100.00;66290.13;4948781;29;20210;-80
2020/12/26 10:29:56;;;;;;;5.07;3.70;;;6.00;99.90;;;-146.47;100.00;66290.13;4940541;29;20215;-80
2020/12/26 10:32:41;;;;;;;7.37;4.17;;;6.00;99.90;;;-146.47;100.00;66290.13;4950156;28;20241;-77
2020/12/26 10:35:26;;;;;;;5.60;3.50;;;6.00;99.90;;;-146.47;100.00;66290.13;4953681;28;20332;-79
2020/12/26 10:38:11;;;;;;;4.67;3.40;;;6.00;99.90;;;-146.47;100.00;66290.13;4954772;28;20310;-78
2020/12/26 10:40:57;;;;;;;6.10;4.20;;;6.00;99.90;;;-146.47;100.00;66290.13;4954360;29;20261;-79
2020/12/26 10:43:43;;;;;;;6.70;4.57;;;6.00;99.90;;;-146.47;100.00;66290.13;4952472;29;20265;-79
2020/12/26 10:46:29;;;;;;;7.27;4.10;;;5.90;99.90;;;-146.47;100.00;66290.13;4955010;28;20218;-79
2020/12/26 10:49:14;;;;;;;6.90;3.70;;;5.90;99.90;;;-146.47;100.00;66290.13;4956599;29;20296;-79
2020/12/26 10:51:59;;;;;;;8.50;4.23;;;5.90;99.90;;;-146.47;100.00;66290.13;4945796;29;20282;-79
2020/12/26 10:54:45;;;;;;;6.10;4.20;;;5.90;99.90;;;-146.47;100.00;66290.13;4944280;28;20676;-79
2020/12/26 10:57:30;;;;;;;8.87;4.07;;;5.90;99.90;;;-146.47;100.00;66290.13;4955579;29;20273;-79
2020/12/26 11:00:16;;;;;;;8.40;4.33;;;5.80;99.90;;;-146.47;100.00;66290.13;4951171;29;20641;-79
2020/12/26 11:03:01;;;;;;;7.97;4.13;;;5.90;99.90;;;-146.47;100.00;66290.13;4944018;28;20609;-77
2020/12/26 11:05:49;;;;;;;7.13;4.30;;;5.80;99.90;;;-146.47;100.00;66290.13;4952261;29;20279;-79
2020/12/26 11:08:34;;;;;;;6.23;3.63;;;5.80;99.90;;;-146.47;100.00;66290.13;4951594;29;20378;-78
2020/12/26 11:11:19;;;;;;;7.97;4.37;;;5.80;99.90;;;-146.47;100.00;66290.13;4943330;29;20211;-80
2020/12/26 11:14:04;;;;;;;5.50;3.50;;;5.80;99.90;;;-146.47;100.00;66290.13;4944573;28;20225;-79
2020/12/26 11:16:52;;;;;;;6.77;4.17;;;5.80;99.90;;;-146.47;100.00;66290.13;4948501;29;20286;-78